| time (UTC) | temp C | wind direction | speed KPH | gust KPH | rain 1hr cm | rain 24hr cm | rain mn cm | humidity % | barometer mb |
| 20260506202327 | 9 | 10 | 9.7 | 14.5 | 0.08 | 0.00 | 1.02 | 93 | 1005.1 |
| 20260506201814 | 9 | 350 | 9.7 | 16.1 | 0.05 | 0.00 | 0.99 | 93 | 1005.0 |
| 20260506201322 | 9 | 5 | 11.3 | 16.1 | 0.05 | 0.00 | 0.99 | 93 | 1004.8 |
| 20260506200831 | 9 | 340 | 3.2 | 9.7 | 0.05 | 0.00 | 0.99 | 93 | 1004.8 |
| 20260506200316 | 9 | 5 | 6.4 | 12.9 | 0.05 | 0.00 | 0.97 | 93 | 1004.6 |
| 20260506195823 | 9 | 10 | 8.0 | 14.5 | 0.05 | 0.00 | 0.97 | 93 | 1004.7 |
| 20260506195330 | 9 | 14 | 4.8 | 11.3 | 0.05 | 0.00 | 0.97 | 93 | 1004.7 |
| 20260506194820 | 9 | 15 | 6.4 | 14.5 | 0.05 | 0.00 | 0.97 | 93 | 1004.6 |
| 20260506194329 | 9 | 24 | 6.4 | 16.1 | 0.08 | 0.00 | 0.97 | 93 | 1004.5 |
| 20260506193818 | 9 | 349 | 9.7 | 16.1 | 0.10 | 0.00 | 0.97 | 93 | 1004.6 |
| 20260506193327 | 10 | 30 | 9.7 | 14.5 | 0.10 | 0.00 | 0.97 | 93 | 1004.4 |
| 20260506192817 | 10 | 48 | 6.4 | 16.1 | 0.08 | 0.00 | 0.94 | 93 | 1004.4 |
| 20260506192341 | 10 | 33 | 6.4 | 16.1 | 0.08 | 0.00 | 0.94 | 93 | 1004.4 |
| 20260506191830 | 10 | 37 | 8.0 | 19.3 | 0.08 | 0.00 | 0.94 | 93 | 1004.4 |
| 20260506191320 | 10 | 69 | 11.3 | 16.1 | 0.08 | 0.00 | 0.94 | 93 | 1004.3 |
| 20260506190826 | 10 | 67 | 9.7 | 19.3 | 0.08 | 0.00 | 0.94 | 93 | 1004.2 |
| 20260506190315 | 10 | 21 | 12.9 | 19.3 | 0.05 | 0.00 | 0.91 | 92 | 1004.1 |
| 20260506185823 | 10 | 22 | 9.7 | 20.9 | 0.05 | 0.00 | 0.91 | 92 | 1003.9 |
| 20260506185332 | 10 | 64 | 12.9 | 20.9 | 0.05 | 0.00 | 0.91 | 92 | 1003.8 |
| 20260506184820 | 10 | 44 | 11.3 | 22.5 | 0.05 | 0.00 | 0.91 | 91 | 1003.8 |
| 20260506184344 | 10 | 349 | 12.9 | 25.7 | 0.05 | 0.00 | 0.91 | 90 | 1003.7 |
| 20260506183832 | 11 | 49 | 11.3 | 25.7 | 0.00 | 0.00 | 0.86 | 88 | 1003.6 |
| 20260506183320 | 12 | 83 | 11.3 | 17.7 | 0.03 | 0.00 | 0.86 | 87 | 1003.4 |
| 20260506182827 | 14 | 22 | 9.7 | 17.7 | 0.03 | 0.00 | 0.86 | 88 | 1003.5 |
| 20260506182317 | 15 | 248 | 4.8 | 24.1 | 0.03 | 0.00 | 0.86 | 93 | 1003.2 |
| 20260506181825 | 15 | 202 | 8.0 | 24.1 | 0.03 | 0.00 | 0.86 | 93 | 1003.0 |
| 20260506181314 | 15 | 263 | 3.2 | 12.9 | 0.05 | 0.00 | 0.86 | 93 | 1003.1 |
| 20260506180839 | 15 | 193 | 4.8 | 14.5 | 0.05 | 0.00 | 0.86 | 93 | 1003.1 |
| 20260506180326 | 15 | 227 | 9.7 | 14.5 | 0.08 | 0.00 | 0.86 | 93 | 1003.0 |
| 20260506175814 | 15 | 178 | 9.7 | 16.1 | 0.08 | 0.00 | 0.86 | 93 | 1003.0 |
| 20260506175321 | 15 | 205 | 9.7 | 16.1 | 0.08 | 0.00 | 0.86 | 93 | 1003.0 |
| 20260506174830 | 15 | 257 | 6.4 | 16.1 | 0.08 | 0.00 | 0.86 | 93 | 1003.1 |
| 20260506174338 | 15 | 178 | 8.0 | 17.7 | 0.10 | 0.00 | 0.86 | 93 | 1003.1 |
| 20260506173827 | 15 | 196 | 12.9 | 19.3 | 0.10 | 0.00 | 0.86 | 93 | 1003.2 |
| 20260506173332 | 15 | 217 | 16.1 | 19.3 | 0.08 | 0.00 | 0.84 | 93 | 1003.3 |
| 20260506172819 | 15 | 205 | 11.3 | 20.9 | 0.10 | 0.00 | 0.84 | 94 | 1003.2 |
| 20260506172325 | 15 | 211 | 8.0 | 20.9 | 0.13 | 0.00 | 0.84 | 93 | 1003.3 |
| 20260506171815 | 15 | 200 | 9.7 | 16.1 | 0.13 | 0.00 | 0.84 | 94 | 1003.3 |
| 20260506171322 | 14 | 228 | 9.7 | 19.3 | 0.13 | 0.00 | 0.81 | 93 | 1003.4 |
| 20260506170831 | 14 | 201 | 11.3 | 19.3 | 0.15 | 0.00 | 0.81 | 93 | 1003.4 |
| 20260506170321 | 14 | 205 | 11.3 | 19.3 | 0.20 | 0.00 | 0.81 | 93 | 1003.4 |
| 20260506165830 | 14 | 221 | 8.0 | 14.5 | 0.20 | 0.00 | 0.79 | 93 | 1003.4 |
| 20260506165313 | 14 | 178 | 6.4 | 14.5 | 0.20 | 0.00 | 0.79 | 93 | 1003.3 |
| 20260506164822 | 14 | 200 | 8.0 | 16.1 | 0.23 | 0.00 | 0.79 | 93 | 1003.4 |
| 20260506164351 | 14 | 215 | 8.0 | 16.1 | 0.23 | 0.00 | 0.76 | 93 | 1003.5 |
| 20260506163818 | 14 | 235 | 6.4 | 12.9 | 0.00 | 0.00 | 0.76 | 93 | 1003.5 |
| 20260506163326 | 14 | 222 | 6.4 | 17.7 | 0.00 | 0.00 | 0.76 | 93 | 1003.5 |
| 20260506162815 | 14 | 196 | 11.3 | 17.7 | 0.00 | 0.00 | 0.74 | 93 | 1003.6 |
| 20260506162323 | 14 | 211 | 8.0 | 14.5 | 0.00 | 0.00 | 0.71 | 94 | 1003.6 |
| 20260506161827 | 14 | 265 | 8.0 | 17.7 | 0.00 | 0.00 | 0.71 | 94 | 1003.6 |
| 20260506161317 | 14 | 193 | 8.0 | 17.7 | 0.00 | 0.00 | 0.69 | 94 | 1003.7 |
| 20260506160847 | 14 | 210 | 9.7 | 17.7 | 0.00 | 0.00 | 0.66 | 94 | 1003.7 |
| 20260506160314 | 14 | 205 | 8.0 | 17.7 | 0.00 | 0.00 | 0.61 | 94 | 1003.9 |
| 20260506155824 | 14 | 229 | 4.8 | 9.7 | 0.00 | 0.00 | 0.61 | 94 | 1003.9 |
| 20260506155314 | 14 | 198 | 6.4 | 14.5 | 0.00 | 0.00 | 0.58 | 94 | 1003.9 |
| 20260506154822 | 14 | 217 | 6.4 | 14.5 | 0.00 | 0.00 | 0.56 | 94 | 1003.8 |
| 20260506153827 | 14 | 192 | 6.4 | 9.7 | 0.05 | 0.56 | 0.53 | 94 | 1004.7 |
| 20260506153346 | 14 | 226 | 4.8 | 8.0 | 0.03 | 0.53 | 0.51 | 94 | 1004.7 |
| 20260506152813 | 13 | 226 | 3.2 | 6.4 | 0.05 | 0.53 | 0.51 | 94 | 1004.7 |
| 20260506152321 | 13 | 257 | 4.8 | 8.0 | 0.05 | 0.53 | 0.51 | 94 | 1004.7 |
| 20260506151848 | 13 | 236 | 3.2 | 8.0 | 0.08 | 0.53 | 0.51 | 94 | 1004.5 |
| 20260506151316 | 13 | 212 | 4.8 | 8.0 | 0.10 | 0.53 | 0.51 | 94 | 1004.4 |
| 20260506150825 | 13 | 196 | 4.8 | 8.0 | 0.10 | 0.53 | 0.51 | 94 | 1004.5 |
| 20260506150315 | 13 | 232 | 3.2 | 16.1 | 0.13 | 0.53 | 0.51 | 94 | 1004.5 |
| 20260506145825 | 13 | 220 | 6.4 | 16.1 | 0.13 | 0.53 | 0.51 | 93 | 1004.6 |
| 20260506145331 | 13 | 225 | 8.0 | 19.3 | 0.13 | 0.51 | 0.48 | 93 | 1004.7 |
| 20260506144820 | 13 | 180 | 8.0 | 19.3 | 0.15 | 0.51 | 0.48 | 93 | 1004.7 |
| 20260506144320 | 13 | 208 | 6.4 | 16.1 | 0.18 | 0.51 | 0.48 | 93 | 1004.7 |
| 20260506143822 | 13 | 171 | 8.0 | 17.7 | 0.20 | 0.51 | 0.48 | 93 | 1004.7 |
| 20260506143329 | 13 | 198 | 9.7 | 17.7 | 0.23 | 0.51 | 0.48 | 93 | 1004.8 |
| 20260506142818 | 13 | 180 | 9.7 | 16.1 | 0.23 | 0.48 | 0.46 | 93 | 1004.9 |
| 20260506142325 | 13 | 215 | 8.0 | 16.1 | 0.25 | 0.48 | 0.46 | 93 | 1005.0 |
| 20260506141823 | 13 | 157 | 4.8 | 17.7 | 0.23 | 0.46 | 0.43 | 93 | 1005.1 |
| 20260506141352 | 13 | 195 | 11.3 | 19.3 | 0.20 | 0.43 | 0.41 | 93 | 1005.4 |
| 20260506140822 | 13 | 202 | 9.7 | 19.3 | 0.20 | 0.43 | 0.41 | 93 | 1005.4 |
| 20260506140331 | 13 | 195 | 9.7 | 19.3 | 0.18 | 0.41 | 0.38 | 93 | 1005.5 |
| 20260506135819 | 13 | 208 | 8.0 | 17.7 | 0.18 | 0.41 | 0.38 | 93 | 1005.6 |
| 20260506135326 | 13 | 190 | 9.7 | 17.7 | 0.15 | 0.38 | 0.36 | 93 | 1005.7 |
| 20260506134814 | 13 | 184 | 12.9 | 17.7 | 0.13 | 0.36 | 0.33 | 93 | 1005.9 |
| 20260506134323 | 13 | 212 | 11.3 | 20.9 | 0.10 | 0.33 | 0.30 | 93 | 1005.9 |
| 20260506133845 | 13 | 197 | 11.3 | 20.9 | 0.08 | 0.30 | 0.28 | 93 | 1005.9 |
| 20260506133331 | 13 | 196 | 11.3 | 17.7 | 0.08 | 0.28 | 0.25 | 93 | 1005.8 |
| 20260506132820 | 13 | 201 | 11.3 | 17.7 | 0.05 | 0.25 | 0.23 | 94 | 1005.8 |
| 20260506132327 | 12 | 215 | 12.9 | 17.7 | 0.05 | 0.25 | 0.23 | 94 | 1005.7 |
| 20260506131817 | 12 | 207 | 8.0 | 17.7 | 0.03 | 0.23 | 0.20 | 94 | 1005.6 |
| 20260506131325 | 12 | 198 | 9.7 | 16.1 | 0.03 | 0.23 | 0.20 | 95 | 1005.4 |
| 20260506130842 | 12 | 195 | 9.7 | 16.1 | 0.03 | 0.25 | 0.20 | 95 | 1005.4 |
| 20260506130330 | 12 | 205 | 4.8 | 8.0 | 0.03 | 0.25 | 0.20 | 95 | 1005.4 |
| 20260506125819 | 11 | 267 | 3.2 | 3.2 | 0.03 | 0.25 | 0.20 | 94 | 1005.4 |
| 20260506125328 | 11 | 355 | 0.0 | 1.6 | 0.05 | 0.25 | 0.20 | 94 | 1005.4 |
| 20260506124817 | 11 | 355 | 0.0 | 1.6 | 0.05 | 0.25 | 0.20 | 94 | 1005.4 |
| 20260506124323 | 11 | 355 | 0.0 | 1.6 | 0.05 | 0.25 | 0.20 | 94 | 1005.5 |
| 20260506123831 | 11 | 355 | 0.0 | 1.6 | 0.05 | 0.25 | 0.20 | 94 | 1005.5 |
| 20260506123321 | 11 | 355 | 0.0 | 1.6 | 0.05 | 0.23 | 0.18 | 94 | 1005.6 |
| 20260506122825 | 10 | 355 | 0.0 | 1.6 | 0.05 | 0.23 | 0.18 | 94 | 1005.7 |
| 20260506122347 | 10 | 355 | 0.0 | 1.6 | 0.08 | 0.23 | 0.18 | 94 | 1005.6 |
| 20260506121814 | 10 | 355 | 0.0 | 3.2 | 0.08 | 0.23 | 0.18 | 93 | 1005.7 |
| 20260506121323 | 10 | 355 | 1.6 | 4.8 | 0.08 | 0.23 | 0.18 | 93 | 1005.7 |
| 20260506120850 | 10 | 355 | 1.6 | 4.8 | 0.10 | 0.23 | 0.18 | 93 | 1005.7 |
| 20260506120339 | 10 | 355 | 3.2 | 4.8 | 0.10 | 0.23 | 0.18 | 93 | 1005.7 |
| 20260506115825 | 10 | 355 | 3.2 | 4.8 | 0.13 | 0.23 | 0.18 | 93 | 1005.6 |
| 20260506115353 | 10 | 355 | 1.6 | 3.2 | 0.10 | 0.20 | 0.15 | 93 | 1005.7 |
| 20260506114822 | 10 | 355 | 1.6 | 3.2 | 0.10 | 0.20 | 0.15 | 93 | 1005.9 |
| 20260506114332 | 10 | 355 | 0.0 | 3.2 | 0.10 | 0.20 | 0.15 | 93 | 1006.1 |
| 20260506113819 | 10 | 355 | 1.6 | 4.8 | 0.10 | 0.20 | 0.15 | 93 | 1006.2 |
| 20260506113349 | 10 | 355 | 0.0 | 4.8 | 0.10 | 0.18 | 0.13 | 93 | 1006.2 |
| 20260506112817 | 10 | 315 | 1.6 | 4.8 | 0.10 | 0.18 | 0.13 | 93 | 1006.3 |
| 20260506112322 | 10 | 315 | 1.6 | 4.8 | 0.08 | 0.15 | 0.10 | 93 | 1006.4 |
| 20260506111832 | 10 | 298 | 3.2 | 3.2 | 0.08 | 0.15 | 0.10 | 93 | 1006.3 |
| 20260506111400 | 10 | 298 | 0.0 | 4.8 | 0.08 | 0.15 | 0.10 | 92 | 1006.3 |
| 20260506110821 | 10 | 298 | 3.2 | 4.8 | 0.05 | 0.13 | 0.08 | 92 | 1006.3 |
| 20260506110329 | 10 | 298 | 1.6 | 3.2 | 0.05 | 0.13 | 0.08 | 92 | 1006.4 |
| 20260506105817 | 10 | 298 | 0.0 | 3.2 | 0.03 | 0.10 | 0.05 | 92 | 1006.2 |
| 20260506105328 | 10 | 298 | 1.6 | 3.2 | 0.05 | 0.10 | 0.05 | 92 | 1006.1 |
| 20260506104817 | 10 | 298 | 1.6 | 3.2 | 0.05 | 0.10 | 0.05 | 92 | 1006.1 |
| 20260506104321 | 10 | 298 | 0.0 | 3.2 | 0.05 | 0.10 | 0.05 | 92 | 1006.0 |
| 20260506103828 | 10 | 299 | 1.6 | 3.2 | 0.05 | 0.10 | 0.05 | 92 | 1005.9 |
| 20260506103317 | 10 | 268 | 1.6 | 3.2 | 0.03 | 0.08 | 0.03 | 92 | 1005.9 |
| 20260506102826 | 10 | 268 | 1.6 | 1.6 | 0.03 | 0.08 | 0.03 | 92 | 1005.9 |
| 20260506102315 | 10 | 268 | 0.0 | 4.8 | 0.03 | 0.08 | 0.03 | 91 | 1005.8 |
| 20260506101844 | 10 | 268 | 1.6 | 4.8 | 0.03 | 0.08 | 0.03 | 91 | 1005.9 |
| 20260506101331 | 10 | 26 | 0.0 | 3.2 | 0.03 | 0.08 | 0.03 | 91 | 1005.9 |
| 20260506100828 | 10 | 26 | 1.6 | 1.6 | 0.03 | 0.08 | 0.03 | 91 | 1006.0 |
| 20260506100316 | 10 | 26 | 0.0 | 3.2 | 0.03 | 0.08 | 0.03 | 91 | 1005.8 |
| 20260506095826 | 10 | 26 | 1.6 | 3.2 | 0.03 | 0.08 | 0.03 | 91 | 1005.9 |
| 20260506095314 | 10 | 26 | 0.0 | 3.2 | 0.00 | 0.05 | 0.00 | 90 | 1006.0 |
| 20260506094823 | 10 | 294 | 1.6 | 3.2 | 0.00 | 0.05 | 0.00 | 90 | 1005.9 |
| 20260506094332 | 10 | 294 | 1.6 | 3.2 | 0.00 | 0.05 | 0.00 | 90 | 1005.9 |
| 20260506093821 | 10 | 294 | 0.0 | 1.6 | 0.00 | 0.05 | 0.00 | 90 | 1005.8 |
| 20260506093347 | 10 | 294 | 0.0 | 1.6 | 0.00 | 0.05 | 0.00 | 90 | 1005.9 |
| 20260506092828 | 10 | 294 | 0.0 | 4.8 | 0.00 | 0.05 | 0.00 | 90 | 1005.9 |
| 20260506092318 | 10 | 294 | 0.0 | 4.8 | 0.00 | 0.05 | 0.00 | 90 | 1005.8 |
| 20260506091825 | 10 | 317 | 3.2 | 4.8 | 0.00 | 0.05 | 0.00 | 90 | 1005.7 |
| 20260506091313 | 10 | 325 | 0.0 | 3.2 | 0.00 | 0.05 | 0.00 | 90 | 1005.7 |
| 20260506090824 | 10 | 325 | 0.0 | 3.2 | 0.00 | 0.05 | 0.00 | 90 | 1005.7 |
| 20260506090314 | 10 | 333 | 1.6 | 3.2 | 0.00 | 0.05 | 0.00 | 90 | 1005.8 |
| 20260506085823 | 10 | 333 | 1.6 | 3.2 | 0.00 | 0.05 | 0.00 | 90 | 1005.8 |
| 20260506085328 | 10 | 320 | 3.2 | 3.2 | 0.00 | 0.05 | 0.00 | 90 | 1005.9 |
| 20260506084815 | 10 | 331 | 1.6 | 4.8 | 0.00 | 0.05 | 0.00 | 90 | 1005.8 |
| 20260506084324 | 10 | 321 | 1.6 | 4.8 | 0.00 | 0.05 | 0.00 | 90 | 1005.7 |
| 20260506083852 | 10 | 32 | 1.6 | 4.8 | 0.00 | 0.05 | 0.00 | 89 | 1005.8 |
| 20260506083340 | 10 | 38 | 3.2 | 4.8 | 0.00 | 0.05 | 0.00 | 89 | 1005.8 |
| 20260506082828 | 10 | 53 | 3.2 | 9.7 | 0.00 | 0.05 | 0.00 | 89 | 1005.9 |
| 20260506082339 | 10 | 31 | 6.4 | 11.3 | 0.00 | 0.05 | 0.00 | 89 | 1006.2 |
| 20260506081822 | 10 | 351 | 4.8 | 9.7 | 0.00 | 0.05 | 0.00 | 88 | 1006.2 |
| 20260506081323 | 10 | 18 | 4.8 | 8.0 | 0.00 | 0.05 | 0.00 | 89 | 1006.1 |
| 20260506080831 | 10 | 66 | 4.8 | 9.7 | 0.00 | 0.05 | 0.00 | 88 | 1006.0 |
| 20260506080321 | 10 | 63 | 6.4 | 9.7 | 0.00 | 0.05 | 0.00 | 88 | 1006.1 |
| 20260506073324 | 11 | 39 | 3.2 | 8.0 | 0.00 | 0.05 | 0.00 | 88 | 1006.4 |
| 20260506072853 | 11 | 42 | 4.8 | 14.5 | 0.00 | 0.05 | 0.00 | 88 | 1006.5 |
| 20260506072321 | 11 | 48 | 4.8 | 14.5 | 0.00 | 0.05 | 0.00 | 88 | 1006.5 |
| 20260506071829 | 11 | 51 | 6.4 | 11.3 | 0.00 | 0.05 | 0.00 | 88 | 1006.8 |
| 20260506071327 | 11 | 54 | 6.4 | 11.3 | 0.00 | 0.05 | 0.00 | 88 | 1006.8 |
| 20260506070816 | 11 | 60 | 6.4 | 8.0 | 0.00 | 0.05 | 0.00 | 88 | 1006.9 |
| 20260506070323 | 11 | 35 | 3.2 | 8.0 | 0.00 | 0.05 | 0.00 | 88 | 1006.8 |
| 20260506062332 | 11 | 5 | 1.6 | 1.6 | 0.00 | 0.05 | 0.00 | 87 | 1006.9 |
| 20260506061820 | 11 | 5 | 0.0 | 1.6 | 0.00 | 0.05 | 0.00 | 87 | 1007.0 |
| 20260506061330 | 11 | 5 | 0.0 | 3.2 | 0.00 | 0.05 | 0.00 | 87 | 1007.0 |
| 20260506060839 | 11 | 5 | 1.6 | 3.2 | 0.00 | 0.05 | 0.00 | 86 | 1007.1 |
| 20260506060320 | 11 | 5 | 0.0 | 1.6 | 0.00 | 0.05 | 0.00 | 86 | 1007.1 |
| 20260506051317 | 12 | 355 | 0.0 | 1.6 | 0.00 | 0.05 | 0.00 | 84 | 1007.8 |
| 20260506050845 | 12 | 355 | 0.0 | 1.6 | 0.00 | 0.05 | 0.00 | 83 | 1007.8 |
| 20260506050313 | 12 | 355 | 0.0 | 0.0 | 0.00 | 0.05 | 0.00 | 83 | 1007.8 |
| 20260506044820 | 12 | 355 | 0.0 | 1.6 | 0.00 | 0.05 | 0.00 | 83 | 1007.9 |
| 20260506044328 | 12 | 355 | 0.0 | 1.6 | 0.00 | 0.05 | 0.00 | 82 | 1007.9 |
| 20260506043815 | 12 | 355 | 0.0 | 3.2 | 0.00 | 0.05 | 0.05 | 82 | 1008.1 |
| 20260506043324 | 12 | 355 | 0.0 | 3.2 | 0.00 | 0.05 | 0.05 | 82 | 1008.1 |
| 20260506042813 | 12 | 355 | 1.6 | 4.8 | 0.00 | 0.05 | 0.05 | 82 | 1008.0 |
| 20260506042341 | 12 | 355 | 3.2 | 4.8 | 0.00 | 0.05 | 0.05 | 82 | 1007.9 |
| 20260506041849 | 12 | 355 | 1.6 | 3.2 | 0.00 | 0.05 | 0.05 | 82 | 1008.0 |
| 20260506041332 | 12 | 355 | 1.6 | 3.2 | 0.00 | 0.05 | 0.05 | 82 | 1008.0 |
| 20260506040813 | 12 | 355 | 0.0 | 4.8 | 0.00 | 0.05 | 0.05 | 82 | 1008.0 |
| 20260506040316 | 12 | 355 | 0.0 | 4.8 | 0.00 | 0.05 | 0.05 | 82 | 1008.2 |
| 20260506035821 | 12 | 355 | 3.2 | 6.4 | 0.00 | 0.05 | 0.05 | 82 | 1008.1 |
| 20260506035330 | 12 | 355 | 3.2 | 6.4 | 0.00 | 0.05 | 0.05 | 82 | 1008.3 |
| 20260506034839 | 12 | 351 | 4.8 | 6.4 | 0.00 | 0.05 | 0.05 | 82 | 1008.3 |
| 20260506034319 | 12 | 355 | 1.6 | 8.0 | 0.00 | 0.05 | 0.05 | 82 | 1008.3 |
| 20260506033828 | 12 | 327 | 4.8 | 8.0 | 0.00 | 0.05 | 0.05 | 82 | 1008.3 |
| 20260506033316 | 12 | 347 | 3.2 | 9.7 | 0.00 | 0.05 | 0.05 | 82 | 1008.2 |
| 20260506032821 | 12 | 351 | 6.4 | 9.7 | 0.00 | 0.05 | 0.05 | 82 | 1008.1 |
| 20260506032330 | 12 | 355 | 3.2 | 6.4 | 0.00 | 0.05 | 0.05 | 83 | 1008.3 |
| 20260506031858 | 12 | 35 | 3.2 | 9.7 | 0.00 | 0.05 | 0.05 | 83 | 1008.4 |
| 20260506031337 | 12 | 28 | 6.4 | 11.3 | 0.00 | 0.05 | 0.05 | 83 | 1008.2 |
| 20260506030824 | 12 | 360 | 4.8 | 11.3 | 0.00 | 0.05 | 0.05 | 84 | 1008.3 |
| 20260506030314 | 12 | 5 | 6.4 | 14.5 | 0.00 | 0.05 | 0.05 | 84 | 1008.3 |
| 20260506025821 | 12 | 36 | 8.0 | 14.5 | 0.00 | 0.05 | 0.05 | 84 | 1008.1 |
| 20260506025326 | 13 | 56 | 6.4 | 11.3 | 0.00 | 0.05 | 0.05 | 85 | 1008.3 |
| 20260506024814 | 13 | 355 | 8.0 | 11.3 | 0.00 | 0.05 | 0.05 | 85 | 1008.3 |
| 20260506024342 | 13 | 15 | 8.0 | 11.3 | 0.00 | 0.05 | 0.05 | 84 | 1008.1 |
| 20260506023851 | 13 | 30 | 6.4 | 16.1 | 0.00 | 0.05 | 0.05 | 84 | 1008.2 |
| 20260506023319 | 13 | 40 | 9.7 | 17.7 | 0.00 | 0.05 | 0.05 | 84 | 1008.2 |
| 20260506022826 | 13 | 41 | 8.0 | 17.7 | 0.00 | 0.05 | 0.05 | 84 | 1008.0 |
| 20260506022315 | 13 | 5 | 8.0 | 16.1 | 0.00 | 0.05 | 0.05 | 84 | 1007.9 |
| 20260506021820 | 13 | 28 | 6.4 | 16.1 | 0.00 | 0.05 | 0.05 | 83 | 1007.9 |
| 20260506021350 | 13 | 5 | 11.3 | 16.1 | 0.00 | 0.05 | 0.05 | 83 | 1008.0 |
| 20260506020819 | 13 | 22 | 9.7 | 20.9 | 0.00 | 0.05 | 0.05 | 84 | 1008.0 |
| 20260506020320 | 13 | 12 | 4.8 | 20.9 | 0.00 | 0.05 | 0.05 | 84 | 1007.9 |
| 20260506015831 | 13 | 360 | 6.4 | 17.7 | 0.00 | 0.05 | 0.05 | 84 | 1007.9 |
| 20260506015318 | 14 | 355 | 6.4 | 17.7 | 0.00 | 0.05 | 0.05 | 84 | 1007.8 |
| 20260506014827 | 14 | 5 | 8.0 | 20.9 | 0.00 | 0.05 | 0.05 | 85 | 1007.9 |
| 20260506014325 | 14 | 347 | 8.0 | 20.9 | 0.00 | 0.05 | 0.05 | 85 | 1007.7 |
| 20260506013815 | 15 | 34 | 9.7 | 25.7 | 0.00 | 0.05 | 0.05 | 85 | 1007.7 |
| 20260506013323 | 15 | 360 | 12.9 | 25.7 | 0.00 | 0.05 | 0.05 | 86 | 1007.4 |
| 20260506012815 | 15 | 25 | 17.7 | 25.7 | 0.00 | 0.05 | 0.05 | 87 | 1007.2 |
| 20260506012322 | 15 | 355 | 9.7 | 20.9 | 0.00 | 0.05 | 0.05 | 89 | 1007.2 |
| 20260506011830 | 15 | 338 | 6.4 | 8.0 | 0.00 | 0.05 | 0.05 | 89 | 1006.8 |
| 20260506011338 | 15 | 333 | 3.2 | 4.8 | 0.00 | 0.05 | 0.05 | 89 | 1006.7 |
| 20260506010821 | 15 | 203 | 3.2 | 4.8 | 0.00 | 0.05 | 0.05 | 89 | 1006.7 |
| 20260506010329 | 15 | 203 | 1.6 | 6.4 | 0.00 | 0.05 | 0.05 | 89 | 1006.7 |
| 20260506005818 | 15 | 203 | 3.2 | 9.7 | 0.00 | 0.05 | 0.05 | 89 | 1006.5 |
| 20260506005327 | 15 | 194 | 4.8 | 14.5 | 0.00 | 0.05 | 0.05 | 88 | 1006.4 |
| 20260506004817 | 15 | 185 | 9.7 | 14.5 | 0.00 | 0.05 | 0.05 | 88 | 1006.4 |
| 20260506004328 | 16 | 195 | 8.0 | 9.7 | 0.00 | 0.05 | 0.05 | 88 | 1006.1 |
| 20260506003837 | 16 | 215 | 6.4 | 8.0 | 0.00 | 0.05 | 0.05 | 87 | 1006.3 |
| 20260506003324 | 16 | 245 | 4.8 | 6.4 | 0.03 | 0.05 | 0.05 | 87 | 1005.9 |
| 20260506002828 | 16 | 250 | 3.2 | 6.4 | 0.03 | 0.05 | 0.05 | 86 | 1005.7 |
| 20260506002316 | 16 | 239 | 3.2 | 6.4 | 0.03 | 0.05 | 0.05 | 85 | 1005.7 |
| 20260506001825 | 16 | 196 | 3.2 | 6.4 | 0.03 | 0.05 | 0.05 | 84 | 1005.6 |
| 20260506001314 | 16 | 193 | 1.6 | 9.7 | 0.03 | 0.05 | 0.05 | 84 | 1005.6 |
| 20260506000824 | 16 | 186 | 4.8 | 9.7 | 0.03 | 0.05 | 0.05 | 83 | 1005.6 |
| 20260506000315 | 16 | 212 | 3.2 | 8.0 | 0.03 | 0.05 | 0.05 | 82 | 1005.7 |
| 20260505235823 | 16 | 205 | 3.2 | 8.0 | 0.03 | 0.05 | 0.05 | 82 | 1005.7 |
| 20260505235330 | 16 | 198 | 3.2 | 11.3 | 0.03 | 0.05 | 0.05 | 81 | 1005.7 |
| 20260505234815 | 17 | 179 | 9.7 | 17.7 | 0.03 | 0.05 | 0.05 | 80 | 1005.7 |
| 20260505234324 | 17 | 178 | 9.7 | 20.9 | 0.03 | 0.05 | 0.05 | 80 | 1005.7 |
| 20260505233814 | 17 | 199 | 19.3 | 20.9 | 0.03 | 0.05 | 0.05 | 79 | 1005.7 |
| 20260505233322 | 17 | 182 | 11.3 | 19.3 | 0.00 | 0.03 | 0.03 | 78 | 1005.6 |
| 20260505232830 | 17 | 198 | 12.9 | 20.9 | 0.00 | 0.03 | 0.03 | 77 | 1005.6 |
| 20260505232339 | 17 | 199 | 14.5 | 20.9 | 0.00 | 0.03 | 0.03 | 76 | 1005.5 |
| 20260505231818 | 17 | 192 | 12.9 | 17.7 | 0.00 | 0.03 | 0.03 | 76 | 1005.4 |
| 20260505231328 | 17 | 186 | 11.3 | 17.7 | 0.00 | 0.03 | 0.03 | 77 | 1005.2 |
| 20260505230813 | 17 | 184 | 8.0 | 16.1 | 0.00 | 0.03 | 0.03 | 77 | 1005.2 |
| 20260505230343 | 17 | 170 | 9.7 | 17.7 | 0.00 | 0.03 | 0.03 | 77 | 1005.2 |
| 20260505225829 | 17 | 198 | 11.3 | 17.7 | 0.00 | 0.03 | 0.03 | 77 | 1005.3 |
| 20260505225319 | 17 | 198 | 6.4 | 17.7 | 0.00 | 0.03 | 0.03 | 77 | 1005.1 |
| 20260505224827 | 17 | 182 | 12.9 | 17.7 | 0.00 | 0.03 | 0.03 | 78 | 1005.0 |
| 20260505224337 | 17 | 194 | 8.0 | 17.7 | 0.00 | 0.03 | 0.03 | 78 | 1005.0 |
| 20260505223823 | 17 | 194 | 9.7 | 17.7 | 0.00 | 0.03 | 0.03 | 78 | 1005.1 |
| 20260505223329 | 17 | 196 | 11.3 | 16.1 | 0.00 | 0.03 | 0.03 | 78 | 1005.1 |
| 20260505222818 | 17 | 204 | 6.4 | 14.5 | 0.00 | 0.03 | 0.03 | 78 | 1005.1 |
| 20260505222326 | 17 | 215 | 8.0 | 16.1 | 0.00 | 0.03 | 0.03 | 78 | 1004.9 |
| 20260505221814 | 17 | 215 | 9.7 | 16.1 | 0.00 | 0.03 | 0.03 | 78 | 1004.9 |
| 20260505221324 | 17 | 211 | 8.0 | 17.7 | 0.00 | 0.03 | 0.03 | 79 | 1004.9 |
| 20260505220853 | 17 | 191 | 8.0 | 17.7 | 0.00 | 0.03 | 0.03 | 79 | 1004.9 |
| 20260505220321 | 17 | 199 | 11.3 | 17.7 | 0.00 | 0.03 | 0.03 | 79 | 1005.0 |
| 20260505215844 | 17 | 216 | 9.7 | 17.7 | 0.00 | 0.03 | 0.03 | 79 | 1005.1 |
| 20260505215313 | 17 | 186 | 11.3 | 19.3 | 0.00 | 0.03 | 0.03 | 79 | 1005.1 |
| 20260505214839 | 17 | 184 | 8.0 | 19.3 | 0.00 | 0.03 | 0.03 | 79 | 1005.1 |
| 20260505214326 | 17 | 192 | 8.0 | 16.1 | 0.00 | 0.03 | 0.03 | 79 | 1005.2 |
| 20260505213816 | 17 | 144 | 8.0 | 20.9 | 0.00 | 0.03 | 0.03 | 79 | 1005.4 |
| 20260505213325 | 17 | 180 | 16.1 | 20.9 | 0.00 | 0.03 | 0.03 | 78 | 1005.4 |
| 20260505212849 | 17 | 211 | 9.7 | 17.7 | 0.00 | 0.03 | 0.03 | 78 | 1005.3 |
| 20260505212317 | 17 | 193 | 12.9 | 17.7 | 0.00 | 0.03 | 0.03 | 78 | 1005.3 |
| 20260505211825 | 17 | 219 | 8.0 | 16.1 | 0.00 | 0.03 | 0.03 | 78 | 1005.3 |
| 20260505211313 | 17 | 230 | 8.0 | 17.7 | 0.00 | 0.03 | 0.03 | 77 | 1005.3 |
| 20260505210823 | 17 | 224 | 4.8 | 22.5 | 0.00 | 0.03 | 0.03 | 77 | 1005.7 |
| 20260505210332 | 17 | 236 | 14.5 | 24.1 | 0.00 | 0.03 | 0.03 | 76 | 1005.9 |
| 20260505205819 | 17 | 297 | 14.5 | 27.4 | 0.00 | 0.03 | 0.03 | 75 | 1005.9 |
| 20260505205328 | 17 | 279 | 11.3 | 27.4 | 0.00 | 0.03 | 0.03 | 75 | 1005.8 |
| 20260505204817 | 17 | 264 | 16.1 | 38.6 | 0.00 | 0.03 | 0.03 | 75 | 1005.5 |
| 20260505204322 | 18 | 292 | 14.5 | 38.6 | 0.00 | 0.03 | 0.03 | 76 | 1005.3 |
| 20260505203831 | 18 | 304 | 16.1 | 37.0 | 0.00 | 0.03 | 0.03 | 75 | 1005.1 |
| 20260505203340 | 18 | 301 | 24.1 | 37.0 | 0.00 | 0.03 | 0.03 | 72 | 1004.7 |
| 20260505202828 | 20 | 303 | 11.3 | 37.0 | 0.00 | 0.03 | 0.03 | 68 | 1004.5 |